Terminal Aerodrome Forecast
Issued by NWS

Home | Current Version | Previous Version | Text Only | Print | Product List | Glossary On
Versions: 1 2 3 4 5 6 7 8 9 10 11 12 13 14 15 16 17 18 19 20 21
000
FTUS43 KDMX 212320
TAFOTM
TAF
KOTM 212320Z 2200/2224 11007KT P6SM SKC
     FM221100 13008KT 5SM BR FEW005
     FM221400 15011KT P6SM SKC=

USA.gov is the U.S. government's official web portal to all federal, state and local government web resources and services.